Time;durP1;ratioP1;P1;durP2;ratioP2;P2;SDS_P1;SDS_P2;PMS_P1;PMS_P2;Temp;Humidity;BMP_temperature;BMP_pressure;BME280_temperature;BME280_humidity;BME280_pressure;Samples;Min_cycle;Max_cycle;Signal;HPM_P1;HPM_P2
2022/10/22 00:01:12;;;;;;;8.57;4.10;;;;;;;14.19;85.81;100661.31;3613572;39;20060;-60
2022/10/22 00:03:38;;;;;;;7.60;3.72;;;;;;;14.19;86.24;100657.75;3613388;39;20296;-61
2022/10/22 00:06:04;;;;;;;7.72;4.00;;;;;;;14.14;86.21;100650.88;3613348;39;20450;-61
2022/10/22 00:08:30;;;;;;;6.72;4.00;;;;;;;14.17;86.55;100657.88;3613753;39;20039;-60
2022/10/22 00:10:56;;;;;;;8.48;4.25;;;;;;;14.17;86.59;100664.13;3613567;39;20324;-60
2022/10/22 00:13:22;;;;;;;8.27;4.00;;;;;;;14.16;87.13;100648.91;3613102;39;20107;-60
2022/10/22 00:15:47;;;;;;;7.88;4.47;;;;;;;14.21;87.52;100647.66;3606523;39;20111;-58
2022/10/22 00:18:13;;;;;;;11.70;4.25;;;;;;;14.22;87.62;100649.41;3613101;39;20063;-60
2022/10/22 00:20:39;;;;;;;5.63;4.20;;;;;;;14.07;88.14;100619.91;3612937;39;20051;-60
2022/10/22 00:23:05;;;;;;;9.15;4.30;;;;;;;14.26;87.62;100648.16;3599597;39;20414;-60
2022/10/22 00:25:34;;;;;;;10.50;4.50;;;;;;;14.27;87.77;100650.75;3611715;39;20055;-60
2022/10/22 00:28:00;;;;;;;7.60;4.47;;;;;;;14.27;87.33;100645.34;3613344;39;20305;-58
2022/10/22 00:30:25;;;;;;;10.15;4.68;;;;;;;14.28;87.52;100654.31;3601138;39;20143;-58
2022/10/22 00:32:51;;;;;;;6.75;4.03;;;;;;;14.28;86.98;100657.03;3613640;39;20413;-59
2022/10/22 00:35:17;;;;;;;10.75;4.63;;;;;;;14.28;87.86;100655.19;3612849;39;20258;-60
2022/10/22 00:37:42;;;;;;;7.05;4.43;;;;;;;14.29;88.14;100662.28;3611463;39;20047;-58
2022/10/22 00:40:09;;;;;;;8.40;4.30;;;;;;;14.31;87.69;100654.94;3612921;39;20309;-59
2022/10/22 00:42:35;;;;;;;7.32;4.13;;;;;;;14.33;87.91;100652.09;3612887;39;20096;-57
2022/10/22 00:45:09;;;;;;;11.05;4.20;;;;;;;14.33;88.01;100658.34;3610760;39;20059;-59
2022/10/22 00:47:47;;;;;;;11.35;6.40;;;;;;;14.32;87.99;100656.66;3612329;39;20296;-59
2022/10/22 00:50:28;;;;;;;8.50;5.82;;;;;;;13.97;87.72;100597.28;3610252;39;20293;-59
2022/10/22 00:52:57;;;;;;;7.28;4.72;;;;;;;14.36;87.10;100662.66;3613995;39;20317;-59
2022/10/22 00:55:26;;;;;;;8.40;4.85;;;;;;;14.35;87.79;100659.09;3613288;39;20054;-59
2022/10/22 00:57:56;;;;;;;13.02;5.53;;;;;;;14.33;87.21;100652.94;3613633;39;20059;-59
2022/10/22 01:00:23;;;;;;;10.32;5.50;;;;;;;14.31;87.46;100654.09;3613208;39;20054;-59
2022/10/22 01:02:52;;;;;;;8.48;5.15;;;;;;;14.33;87.30;100660.19;3612669;39;20073;-58
2022/10/22 01:05:19;;;;;;;7.38;4.30;;;;;;;14.33;87.63;100665.59;3612998;39;20051;-59
2022/10/22 01:07:50;;;;;;;11.95;4.25;;;;;;;14.30;87.49;100657.75;3614560;39;20063;-58
2022/10/22 01:10:58;;;;;;;7.05;4.30;;;;;;;14.29;87.03;100653.34;3603231;39;20375;-58
2022/10/22 01:14:12;;;;;;;9.48;4.47;;;;;;;14.19;87.16;100641.53;3613123;39;20057;-57
2022/10/22 01:17:09;;;;;;;9.88;4.35;;;;;;;14.28;87.54;100659.72;3614461;39;20392;-59
2022/10/22 01:20:17;;;;;;;14.25;5.05;;;;;;;14.29;88.11;100661.44;3606269;39;20059;-59
2022/10/22 01:23:16;;;;;;;8.25;4.55;;;;;;;14.30;88.28;100655.03;3614337;39;20385;-61
2022/10/22 01:25:56;;;;;;;7.50;4.18;;;;;;;14.31;88.02;100654.09;3614421;39;20389;-59
2022/10/22 01:29:08;;;;;;;8.57;4.70;;;;;;;14.29;87.47;100656.03;3614477;39;20083;-59
2022/10/22 01:31:53;;;;;;;8.15;4.38;;;;;;;14.26;87.11;100658.97;3612935;39;20340;-58
2022/10/22 01:34:22;;;;;;;8.02;4.45;;;;;;;14.25;87.83;100654.56;3614346;39;20043;-58
2022/10/22 01:36:51;;;;;;;6.53;4.68;;;;;;;14.24;87.41;100655.53;3614234;39;20065;-59
2022/10/22 01:39:20;;;;;;;8.40;4.53;;;;;;;14.22;87.70;100650.25;3613103;39;20050;-60
2022/10/22 01:41:46;;;;;;;9.45;5.22;;;;;;;14.22;88.06;100644.00;3614393;39;20062;-60
2022/10/22 01:44:31;;;;;;;10.25;4.53;;;;;;;14.19;87.83;100642.41;3612373;39;20054;-60
2022/10/22 01:47:14;;;;;;;11.93;5.15;;;;;;;14.20;87.46;100646.81;3614240;39;20304;-60
2022/10/22 01:50:25;;;;;;;7.18;4.82;;;;;;;14.16;87.61;100646.19;3613491;39;20054;-59
2022/10/22 01:53:17;;;;;;;11.55;4.55;;;;;;;14.13;87.82;100635.63;3614603;39;20322;-60
2022/10/22 01:56:28;;;;;;;9.73;4.50;;;;;;;14.14;87.52;100650.00;3613701;39;20082;-60
2022/10/22 01:59:16;;;;;;;7.65;4.82;;;;;;;14.13;88.01;100646.44;3615320;39;20132;-60
2022/10/22 02:02:23;;;;;;;9.55;4.72;;;;;;;14.12;88.13;100650.13;3614400;39;20047;-60
2022/10/22 02:05:02;;;;;;;10.13;5.00;;;;;;;14.10;88.28;100645.81;3614268;39;20059;-60
2022/10/22 02:07:36;;;;;;;10.45;5.20;;;;;;;14.13;87.77;100651.84;3608952;39;20061;-60
2022/10/22 02:10:06;;;;;;;11.23;5.07;;;;;;;14.14;88.25;100653.59;3612105;39;20061;-60
2022/10/22 02:12:34;;;;;;;10.43;5.53;;;;;;;14.09;87.76;100655.78;3613743;39;20411;-60
2022/10/22 02:15:03;;;;;;;9.00;4.90;;;;;;;14.11;88.32;100653.84;3612195;39;20409;-60
2022/10/22 02:17:34;;;;;;;9.38;5.00;;;;;;;14.12;88.30;100657.38;3613931;39;20055;-61
2022/10/22 02:20:15;;;;;;;7.45;4.75;;;;;;;14.12;88.76;100660.94;3611623;39;20051;-61
2022/10/22 02:22:41;;;;;;;11.35;5.22;;;;;;;14.12;88.80;100651.97;3611786;39;20051;-60
2022/10/22 02:25:10;;;;;;;8.55;5.28;;;;;;;14.11;88.22;100651.13;3614132;39;20055;-60
2022/10/22 02:28:01;;;;;;;10.27;5.13;;;;;;;13.93;87.41;100634.50;3613758;39;20055;-61
2022/10/22 02:30:27;;;;;;;9.25;4.78;;;;;;;14.04;88.17;100646.31;3607966;39;20312;-58
2022/10/22 02:33:09;;;;;;;10.10;5.50;;;;;;;13.98;88.02;100642.25;3614371;39;20051;-61
2022/10/22 02:35:40;;;;;;;7.03;4.80;;;;;;;13.98;87.33;100647.66;3613212;39;20057;-60
2022/10/22 02:38:11;;;;;;;12.55;5.35;;;;;;;13.75;86.99;100621.59;3612550;39;20091;-60
2022/10/22 02:40:37;;;;;;;8.93;5.40;;;;;;;13.92;87.42;100642.72;3614099;39;20043;-60
2022/10/22 02:43:05;;;;;;;15.90;5.65;;;;;;;13.93;88.15;100652.56;3614010;39;20123;-60
2022/10/22 02:45:33;;;;;;;9.57;5.18;;;;;;;13.91;87.89;100651.81;3613520;39;20056;-60
2022/10/22 02:47:59;;;;;;;11.98;4.93;;;;;;;13.91;88.48;100657.22;3613739;39;20405;-60
2022/10/22 02:50:24;;;;;;;11.40;5.85;;;;;;;13.92;89.02;100653.53;3612703;39;20064;-61
2022/10/22 02:52:50;;;;;;;8.68;5.25;;;;;;;13.91;89.02;100662.63;3613718;39;20050;-60
2022/10/22 02:55:16;;;;;;;8.30;5.00;;;;;;;13.91;88.52;100658.09;3613696;39;20051;-60
2022/10/22 02:57:41;;;;;;;9.13;5.75;;;;;;;13.90;88.87;100669.88;3614551;39;20057;-61
2022/10/22 03:00:10;;;;;;;12.20;5.45;;;;;;;13.93;88.96;100671.50;3613769;39;20296;-60
2022/10/22 03:02:36;;;;;;;10.40;5.07;;;;;;;13.90;88.68;100661.78;3612876;39;20382;-61
2022/10/22 03:05:03;;;;;;;13.43;5.25;;;;;;;13.91;88.85;100670.75;3613954;39;20059;-59
2022/10/22 03:07:29;;;;;;;9.38;4.82;;;;;;;13.90;88.96;100675.28;3609871;39;20063;-61
2022/10/22 03:09:54;;;;;;;11.30;5.50;;;;;;;13.90;88.69;100667.19;3613407;39;20054;-59
2022/10/22 03:12:20;;;;;;;10.60;5.57;;;;;;;13.91;89.48;100678.84;3613461;39;20051;-60
2022/10/22 03:14:45;;;;;;;11.50;5.28;;;;;;;13.90;89.45;100677.13;3614175;39;20295;-60
2022/10/22 03:17:11;;;;;;;7.28;4.60;;;;;;;13.75;89.83;100651.31;3613478;39;20075;-61
2022/10/22 03:19:37;;;;;;;12.38;5.30;;;;;;;13.90;90.26;100677.13;3613541;39;20266;-60
2022/10/22 03:22:12;;;;;;;11.65;5.38;;;;;;;13.92;90.43;100675.16;3613685;39;20050;-60
2022/10/22 03:24:45;;;;;;;8.90;4.80;;;;;;;13.95;90.38;100669.50;3605755;39;20083;-60
2022/10/22 03:27:15;;;;;;;9.65;4.82;;;;;;;13.97;90.21;100681.06;3612635;39;20073;-60
2022/10/22 03:29:43;;;;;;;11.15;5.15;;;;;;;13.88;90.67;100657.47;3610090;39;20043;-59
2022/10/22 03:32:08;;;;;;;12.20;5.07;;;;;;;14.01;90.17;100674.44;3615301;39;20047;-60
2022/10/22 03:34:34;;;;;;;11.75;4.95;;;;;;;14.02;90.09;100670.78;3613541;39;20058;-60
2022/10/22 03:37:01;;;;;;;12.88;4.63;;;;;;;14.01;89.80;100674.44;3612925;39;20406;-60
2022/10/22 03:39:32;;;;;;;10.48;5.15;;;;;;;14.02;89.86;100678.88;3613635;39;20086;-60
2022/10/22 03:41:58;;;;;;;15.43;5.28;;;;;;;14.04;90.09;100685.00;3613288;39;20075;-60
2022/10/22 03:44:25;;;;;;;13.77;4.78;;;;;;;14.06;89.57;100687.59;3613003;39;20124;-61
2022/10/22 03:46:50;;;;;;;17.58;5.50;;;;;;;14.08;89.50;100701.84;3616291;39;20375;-60
2022/10/22 03:49:16;;;;;;;10.75;5.07;;;;;;;14.09;89.72;100698.19;3613742;39;20059;-60
2022/10/22 03:51:42;;;;;;;11.90;4.88;;;;;;;14.10;89.63;100706.16;3613155;39;20357;-60
2022/10/22 03:54:08;;;;;;;10.45;4.10;;;;;;;13.99;89.24;100683.66;3611525;39;20057;-60
2022/10/22 03:56:33;;;;;;;7.38;4.18;;;;;;;14.10;89.56;100706.16;3613570;39;20058;-60
2022/10/22 03:59:01;;;;;;;11.60;4.25;;;;;;;13.94;89.70;100679.47;3613108;39;20058;-61
2022/10/22 04:01:28;;;;;;;10.90;4.40;;;;;;;14.14;89.45;100707.66;3615750;39;20090;-60
2022/10/22 04:03:56;;;;;;;8.18;4.47;;;;;;;14.15;89.25;100708.50;3613638;39;20128;-60
2022/10/22 04:06:22;;;;;;;9.75;4.32;;;;;;;14.15;89.28;100701.25;3610585;39;20055;-60
2022/10/22 04:08:47;;;;;;;9.25;4.53;;;;;;;14.03;89.33;100687.84;3612500;39;20055;-60
2022/10/22 04:11:15;;;;;;;11.75;4.10;;;;;;;14.14;89.04;100707.66;3613234;39;20447;-61
2022/10/22 04:13:41;;;;;;;14.10;4.65;;;;;;;14.16;89.53;100704.81;3615563;39;20053;-60
2022/10/22 04:16:14;;;;;;;6.85;4.15;;;;;;;14.19;89.71;100714.53;3612565;39;20057;-60
2022/10/22 04:18:42;;;;;;;10.93;3.70;;;;;;;14.20;89.96;100711.69;3613681;39;20043;-60
2022/10/22 04:21:10;;;;;;;13.43;4.50;;;;;;;14.22;89.77;100708.88;3612384;39;20047;-60
2022/10/22 04:23:37;;;;;;;11.88;4.38;;;;;;;14.22;88.99;100719.69;3610627;39;20124;-60
2022/10/22 04:26:06;;;;;;;11.00;4.00;;;;;;;14.25;89.61;100714.06;3612729;39;20058;-60
2022/10/22 04:28:33;;;;;;;8.73;3.92;;;;;;;14.27;89.03;100720.19;3612993;39;20063;-60
2022/10/22 04:30:59;;;;;;;10.88;4.28;;;;;;;14.29;89.09;100718.22;3611446;39;20055;-61
2022/10/22 04:33:25;;;;;;;19.17;4.85;;;;;;;14.29;88.99;100721.78;3613545;39;20098;-61
2022/10/22 04:35:50;;;;;;;8.63;3.72;;;;;;;14.28;89.30;100714.66;3613079;39;20058;-59
2022/10/22 04:38:16;;;;;;;9.30;3.42;;;;;;;14.30;89.03;100717.22;3613121;39;20047;-60
2022/10/22 04:40:42;;;;;;;10.57;3.75;;;;;;;14.28;88.31;100714.66;3612456;39;20104;-60
2022/10/22 04:43:07;;;;;;;9.52;4.15;;;;;;;14.27;88.72;100717.47;3611767;39;20047;-60
2022/10/22 04:45:35;;;;;;;9.80;4.75;;;;;;;14.28;88.24;100714.66;3613166;39;20047;-60
2022/10/22 04:48:00;;;;;;;11.15;4.50;;;;;;;14.28;88.54;100719.22;3610948;39;20047;-60
2022/10/22 04:50:26;;;;;;;9.30;4.00;;;;;;;14.26;88.92;100711.22;3613136;39;20050;-60
2022/10/22 04:52:52;;;;;;;13.13;4.20;;;;;;;14.29;88.82;100721.78;3609350;39;20060;-60
2022/10/22 04:55:18;;;;;;;12.60;3.95;;;;;;;14.29;88.81;100720.94;3612833;39;20055;-60
2022/10/22 04:57:43;;;;;;;12.95;3.88;;;;;;;14.31;88.64;100721.69;3613563;39;20082;-59
2022/10/22 05:00:10;;;;;;;12.88;4.07;;;;;;;13.82;88.47;100641.75;3613045;39;20568;-61
2022/10/22 05:02:36;;;;;;;16.17;4.35;;;;;;;14.33;88.69;100722.41;3611885;39;20387;-60
2022/10/22 05:05:02;;;;;;;11.50;5.53;;;;;;;14.26;88.43;100710.34;3612768;39;20385;-61
2022/10/22 05:07:27;;;;;;;11.85;5.93;;;;;;;14.38;88.81;100725.59;3613224;39;20155;-60
2022/10/22 05:09:53;;;;;;;12.02;4.50;;;;;;;14.42;88.51;100727.06;3613090;39;20301;-60
2022/10/22 05:12:19;;;;;;;13.63;4.22;;;;;;;14.46;88.26;100734.00;3612826;39;20054;-60
2022/10/22 05:14:44;;;;;;;10.93;4.65;;;;;;;14.48;88.27;100726.59;3613073;39;20054;-60
2022/10/22 05:17:10;;;;;;;13.02;4.22;;;;;;;14.49;88.16;100728.31;3602065;39;20075;-60
2022/10/22 05:19:36;;;;;;;13.88;4.03;;;;;;;14.52;88.38;100727.25;3610862;39;20470;-60
2022/10/22 05:22:04;;;;;;;12.43;3.80;;;;;;;14.60;87.56;100733.75;3612678;39;20039;-60
2022/10/22 05:24:33;;;;;;;11.23;4.07;;;;;;;14.61;87.37;100729.22;3613482;39;20489;-60
2022/10/22 05:26:59;;;;;;;12.75;3.80;;;;;;;14.67;87.76;100738.69;3612033;39;21309;-60
2022/10/22 05:29:26;;;;;;;13.95;4.07;;;;;;;14.69;87.32;100739.44;3612253;39;20042;-59
2022/10/22 05:31:52;;;;;;;11.68;3.67;;;;;;;14.71;86.92;100743.72;3612839;39;20043;-59
2022/10/22 05:34:18;;;;;;;13.40;4.18;;;;;;;14.75;86.92;100744.34;3612916;39;20354;-59
2022/10/22 05:36:44;;;;;;;13.73;3.53;;;;;;;14.76;86.73;100744.22;3596353;39;20043;-60
2022/10/22 05:39:10;;;;;;;10.82;3.83;;;;;;;14.76;86.00;100736.09;3613859;39;20075;-60
2022/10/22 05:41:36;;;;;;;16.30;4.03;;;;;;;14.76;86.07;100746.06;3612777;39;20304;-59
2022/10/22 05:44:03;;;;;;;13.05;3.88;;;;;;;14.77;85.86;100754.03;3612755;39;20077;-60
2022/10/22 05:46:34;;;;;;;12.23;3.60;;;;;;;14.72;85.37;100739.19;3613159;39;20402;-59
2022/10/22 05:49:04;;;;;;;16.40;3.38;;;;;;;14.79;86.40;100753.94;3612545;39;20047;-60
2022/10/22 05:51:35;;;;;;;11.20;3.90;;;;;;;14.79;85.42;100746.66;3611488;39;20054;-59
2022/10/22 05:54:04;;;;;;;9.32;3.38;;;;;;;14.78;84.98;100753.06;3613023;39;20051;-59
2022/10/22 05:56:31;;;;;;;12.07;3.38;;;;;;;14.79;85.37;100753.94;3615018;39;20351;-60
2022/10/22 05:58:57;;;;;;;14.30;3.70;;;;;;;14.78;85.12;100760.31;3613701;39;20087;-60
2022/10/22 06:01:27;;;;;;;12.40;3.47;;;;;;;14.76;85.22;100756.88;3614960;39;20050;-59
2022/10/22 06:04:01;;;;;;;8.52;3.13;;;;;;;14.77;85.03;100775.69;3612605;39;20055;-59
2022/10/22 06:06:34;;;;;;;;;;;;;;;14.74;84.39;100783.19;3611194;39;20058;-59
2022/10/22 06:09:22;;;;;;;9.00;3.10;;;;;;;14.74;84.83;100777.78;3612794;39;20189;-60
2022/10/22 06:11:50;;;;;;;9.68;3.20;;;;;;;14.72;84.58;100777.06;3615016;39;20050;-59
2022/10/22 06:14:18;;;;;;;11.57;3.65;;;;;;;14.69;85.00;100775.47;3614779;39;20061;-60
2022/10/22 06:16:44;;;;;;;10.95;3.40;;;;;;;14.69;85.04;100777.31;3613595;39;20046;-59
2022/10/22 06:19:16;;;;;;;13.20;3.47;;;;;;;14.42;84.65;100740.59;3613678;39;20182;-59
2022/10/22 06:21:43;;;;;;;6.80;2.97;;;;;;;14.73;84.55;100795.88;3614279;39;20308;-59
2022/10/22 06:24:10;;;;;;;9.55;2.97;;;;;;;14.71;84.33;100796.97;3611364;39;20178;-60
2022/10/22 06:26:36;;;;;;;9.48;3.05;;;;;;;14.73;84.02;100800.44;3613784;39;20050;-59
2022/10/22 06:29:02;;;;;;;10.48;3.90;;;;;;;14.71;84.35;100810.50;3613567;39;20111;-58
2022/10/22 06:31:35;;;;;;;11.45;3.50;;;;;;;14.72;84.48;100812.25;3613700;39;20118;-59
2022/10/22 06:34:02;;;;;;;14.13;3.67;;;;;;;14.67;84.22;100809.88;3614194;39;20292;-59
2022/10/22 06:36:28;;;;;;;9.55;3.60;;;;;;;14.70;83.89;100819.59;3614660;39;20048;-60
2022/10/22 06:38:55;;;;;;;11.35;3.42;;;;;;;14.70;84.52;100828.59;3613914;39;20097;-59
2022/10/22 06:41:22;;;;;;;10.30;3.45;;;;;;;14.69;84.07;100829.56;3610165;39;20064;-59
2022/10/22 06:43:48;;;;;;;12.02;3.17;;;;;;;14.70;84.03;100838.53;3614281;39;20054;-59
2022/10/22 06:46:18;;;;;;;12.60;3.28;;;;;;;14.69;83.84;100828.72;3614439;39;20074;-59
2022/10/22 06:48:49;;;;;;;11.73;2.80;;;;;;;14.62;83.96;100837.31;3614016;39;20051;-60
2022/10/22 06:51:15;;;;;;;8.93;2.92;;;;;;;14.62;84.08;100829.19;3614043;39;20043;-60
2022/10/22 06:53:41;;;;;;;9.88;3.05;;;;;;;14.68;84.31;100846.78;3614267;39;20047;-60
2022/10/22 06:56:13;;;;;;;8.50;3.08;;;;;;;14.67;83.89;100844.19;3614025;39;20374;-59
2022/10/22 06:58:38;;;;;;;11.23;3.10;;;;;;;14.67;84.40;100852.31;3613454;39;20047;-58
2022/10/22 07:01:09;;;;;;;11.25;3.20;;;;;;;14.66;83.88;100858.72;3613520;39;20055;-59
2022/10/22 07:03:35;;;;;;;8.02;2.88;;;;;;;14.67;83.90;100863.13;3616875;39;20047;-60
2022/10/22 07:06:04;;;;;;;9.68;3.08;;;;;;;14.61;84.35;100870.75;3612973;39;20058;-59
2022/10/22 07:08:31;;;;;;;11.68;3.20;;;;;;;14.65;84.31;100871.34;3610750;39;20062;-59
2022/10/22 07:11:10;;;;;;;10.07;3.35;;;;;;;14.65;83.67;100879.47;3612518;39;20057;-60
2022/10/22 07:13:36;;;;;;;10.52;3.00;;;;;;;14.67;83.74;100871.25;3610687;39;20043;-60
2022/10/22 07:16:03;;;;;;;8.93;2.80;;;;;;;14.70;84.25;100880.00;3614031;39;20055;-60
2022/10/22 07:18:30;;;;;;;10.25;3.10;;;;;;;14.70;83.93;100871.00;3614083;39;20046;-60
2022/10/22 07:20:55;;;;;;;8.80;3.03;;;;;;;14.79;83.76;100876.56;3613281;39;20047;-60
2022/10/22 07:23:21;;;;;;;8.80;3.10;;;;;;;14.83;84.11;100883.44;3613690;39;20061;-60
2022/10/22 07:25:47;;;;;;;5.93;2.72;;;;;;;14.76;83.97;100865.13;3614362;39;20282;-60
2022/10/22 07:28:13;;;;;;;9.77;2.70;;;;;;;15.04;83.46;100897.16;3613683;39;20066;-60
2022/10/22 07:30:39;;;;;;;7.93;2.70;;;;;;;15.20;83.18;100895.94;3613159;39;20051;-59
2022/10/22 07:33:06;;;;;;;11.13;2.72;;;;;;;15.38;82.99;100899.88;3613546;39;20053;-60
2022/10/22 07:35:33;;;;;;;9.15;3.10;;;;;;;15.56;81.82;100903.75;3612701;39;20055;-60
2022/10/22 07:37:59;;;;;;;11.75;4.15;;;;;;;15.73;80.77;100901.53;3613707;39;20082;-60
2022/10/22 07:40:25;;;;;;;11.55;4.05;;;;;;;15.91;80.79;100913.59;3613029;39;20053;-60
2022/10/22 07:42:51;;;;;;;7.03;2.60;;;;;;;16.08;78.51;100916.75;3613445;39;20300;-59
2022/10/22 07:45:17;;;;;;;9.40;2.67;;;;;;;16.19;77.92;100916.72;3616991;39;20412;-59
2022/10/22 07:47:43;;;;;;;5.10;2.20;;;;;;;16.35;77.80;100919.84;3614246;39;20062;-60
2022/10/22 07:50:09;;;;;;;9.48;2.30;;;;;;;16.50;76.93;100908.69;3612644;39;20143;-60
2022/10/22 07:52:34;;;;;;;7.55;2.20;;;;;;;16.63;76.44;100920.22;3613880;39;20057;-60
2022/10/22 07:55:00;;;;;;;11.52;2.40;;;;;;;16.76;76.03;100925.50;3613125;39;20058;-60
2022/10/22 07:57:26;;;;;;;8.27;2.35;;;;;;;16.76;75.46;100934.47;3613748;39;20050;-59
2022/10/22 07:59:51;;;;;;;8.70;2.33;;;;;;;16.74;74.40;100928.28;3613564;39;20392;-60
2022/10/22 08:02:17;;;;;;;11.32;2.28;;;;;;;16.75;74.82;100940.91;3600381;39;20290;-60
2022/10/22 08:04:43;;;;;;;8.48;2.45;;;;;;;16.68;75.29;100928.81;3612291;39;20053;-60
2022/10/22 08:07:08;;;;;;;10.32;2.55;;;;;;;16.65;74.72;100939.94;3612859;39;20352;-60
2022/10/22 08:09:34;;;;;;;9.07;2.20;;;;;;;16.73;75.03;100942.00;3613254;39;20087;-60
2022/10/22 08:11:59;;;;;;;10.68;2.20;;;;;;;16.77;74.62;100943.50;3613138;39;20659;-60
2022/10/22 08:14:25;;;;;;;8.25;2.28;;;;;;;16.88;75.30;100951.59;3615554;39;20058;-60
2022/10/22 08:16:51;;;;;;;10.65;2.38;;;;;;;17.03;75.09;100941.22;3612056;39;20080;-59
2022/10/22 08:19:19;;;;;;;10.00;2.30;;;;;;;17.14;73.89;100944.72;3610776;39;20046;-60
2022/10/22 08:21:45;;;;;;;8.40;2.15;;;;;;;17.40;72.49;100947.00;3613559;39;20046;-60
2022/10/22 08:24:11;;;;;;;8.52;2.35;;;;;;;17.55;72.75;100950.22;3612389;39;20330;-60
2022/10/22 08:26:37;;;;;;;5.55;1.85;;;;;;;17.73;71.92;100959.44;3614808;39;20047;-60
2022/10/22 08:29:03;;;;;;;6.68;2.15;;;;;;;17.89;71.40;100966.22;3612446;39;20385;-60
2022/10/22 08:31:28;;;;;;;11.63;2.10;;;;;;;18.04;70.20;100973.00;3613358;39;20061;-60
2022/10/22 08:33:54;;;;;;;6.00;1.90;;;;;;;18.18;69.60;100978.06;3612986;39;20051;-60
2022/10/22 08:36:19;;;;;;;6.22;2.10;;;;;;;18.27;68.54;100984.53;3613814;39;20058;-60
2022/10/22 08:38:45;;;;;;;6.63;1.88;;;;;;;18.36;68.99;100989.09;3613209;39;20051;-59
2022/10/22 08:41:17;;;;;;;10.70;2.47;;;;;;;18.56;67.53;100987.28;3613726;39;20070;-59
2022/10/22 08:44:42;;;;;;;8.52;2.15;;;;;;;18.55;67.02;100986.44;3612195;39;20047;-61
2022/10/22 08:47:16;;;;;;;10.13;3.75;;;;;;;18.50;67.01;100991.41;3589304;39;20431;-58
2022/10/22 08:49:42;;;;;;;10.40;2.90;;;;;;;18.44;67.67;101000.16;3612658;39;20124;-58
2022/10/22 08:52:18;;;;;;;8.38;2.08;;;;;;;18.41;68.52;101010.47;3613057;39;20074;-57
2022/10/22 08:54:58;;;;;;;8.63;2.10;;;;;;;18.37;68.28;101007.19;3614857;39;20051;-57
2022/10/22 08:57:48;;;;;;;16.45;5.22;;;;;;;18.28;68.47;101003.44;3613420;39;20054;-60
2022/10/22 09:00:45;;;;;;;14.05;5.72;;;;;;;18.29;68.04;101016.03;3613031;39;20125;-60
2022/10/22 09:03:32;;;;;;;9.38;2.30;;;;;;;18.25;68.14;101019.19;3613338;39;21252;-60
2022/10/22 09:06:20;;;;;;;10.70;2.25;;;;;;;18.18;68.86;101020.75;3611710;39;20070;-60
2022/10/22 09:08:47;;;;;;;4.45;1.50;;;;;;;18.15;68.85;101021.88;3612808;39;20062;-60
2022/10/22 09:11:39;;;;;;;7.78;2.22;;;;;;;18.14;68.77;101022.88;3612589;39;20051;-59
2022/10/22 09:14:14;;;;;;;9.40;2.10;;;;;;;18.11;68.62;101017.72;3602789;39;20061;-59
2022/10/22 09:17:12;;;;;;;6.90;2.20;;;;;;;18.03;69.11;101039.31;3613094;39;20430;-59
2022/10/22 09:19:53;;;;;;;8.10;2.10;;;;;;;17.94;68.26;101037.41;3611902;39;20051;-60
2022/10/22 09:22:46;;;;;;;8.25;2.10;;;;;;;17.91;69.70;101045.84;3612732;39;20054;-57
2022/10/22 09:25:26;;;;;;;8.13;2.05;;;;;;;17.88;68.65;101049.69;3613339;39;20077;-60
2022/10/22 09:27:57;;;;;;;7.68;1.92;;;;;;;17.86;69.58;101049.84;3613608;39;20047;-59
2022/10/22 09:30:36;;;;;;;4.97;1.85;;;;;;;17.87;69.40;101050.69;3606124;39;20131;-59
2022/10/22 09:33:05;;;;;;;6.57;1.77;;;;;;;17.85;69.02;101049.97;3614174;39;20043;-59
2022/10/22 09:35:43;;;;;;;8.57;1.73;;;;;;;17.83;69.43;101052.84;3615285;39;20051;-58
2022/10/22 09:38:14;;;;;;;7.65;1.88;;;;;;;17.78;69.29;101049.66;3614237;39;20071;-60
2022/10/22 09:41:02;;;;;;;9.48;2.00;;;;;;;17.76;68.86;101067.94;3614563;39;20043;-59
2022/10/22 09:43:28;;;;;;;6.90;2.20;;;;;;;17.77;69.98;101066.97;3609876;39;20055;-59
2022/10/22 09:46:02;;;;;;;11.23;2.22;;;;;;;17.75;69.59;101071.63;3614663;39;20049;-59
2022/10/22 09:48:36;;;;;;;8.63;2.70;;;;;;;17.73;69.24;101073.66;3614091;39;20051;-59
2022/10/22 09:51:21;;;;;;;7.40;3.10;;;;;;;17.78;69.75;101065.97;3612912;39;20077;-59
2022/10/22 09:53:58;;;;;;;9.82;2.17;;;;;;;17.83;69.61;101071.88;3614798;39;20043;-59
2022/10/22 09:56:38;;;;;;;7.35;2.25;;;;;;;17.83;69.09;101082.75;3614848;39;20409;-58
2022/10/22 09:59:03;;;;;;;6.85;1.67;;;;;;;17.86;69.68;101081.63;3603599;39;20043;-59
2022/10/22 10:01:37;;;;;;;11.05;1.85;;;;;;;17.84;69.29;101092.63;3613965;39;20127;-59
2022/10/22 10:04:11;;;;;;;9.23;2.42;;;;;;;17.85;69.59;101086.16;3611189;39;20055;-59
2022/10/22 10:06:41;;;;;;;7.10;2.10;;;;;;;17.84;70.39;101098.06;3614349;39;20385;-59
2022/10/22 10:09:18;;;;;;;8.38;2.22;;;;;;;17.89;69.71;101107.66;3602193;39;20412;-59
2022/10/22 10:12:26;;;;;;;8.30;2.42;;;;;;;17.88;69.62;101109.53;3614497;39;20065;-59
2022/10/22 10:15:05;;;;;;;6.88;1.88;;;;;;;17.91;70.14;101124.72;3613647;39;20119;-59
2022/10/22 10:18:03;;;;;;;10.05;2.30;;;;;;;17.91;69.67;101114.69;3614070;39;20035;-59
2022/10/22 10:21:05;;;;;;;9.13;2.35;;;;;;;17.92;69.67;101116.44;3611557;39;20382;-59
2022/10/22 10:23:57;;;;;;;7.97;2.05;;;;;;;17.96;70.22;101123.31;3613613;39;20046;-59
2022/10/22 10:26:47;;;;;;;8.32;2.20;;;;;;;18.03;70.16;101129.94;3611356;39;20082;-59
2022/10/22 10:29:21;;;;;;;6.32;2.13;;;;;;;18.13;69.32;101127.25;3614610;39;20053;-59
2022/10/22 10:32:34;;;;;;;9.55;2.45;;;;;;;18.17;69.42;101127.84;3613931;39;20367;-59
2022/10/22 10:35:20;;;;;;;4.43;1.70;;;;;;;18.26;69.69;101133.31;3616214;39;20055;-59
2022/10/22 10:38:15;;;;;;;7.22;2.15;;;;;;;18.44;69.07;101129.97;3614485;39;20061;-59
2022/10/22 10:41:28;;;;;;;7.82;2.42;;;;;;;18.52;68.19;101130.13;3612727;39;20139;-59
2022/10/22 10:44:14;;;;;;;9.13;2.22;;;;;;;18.65;68.14;101132.59;3613154;39;20058;-59
2022/10/22 10:47:08;;;;;;;5.88;1.70;;;;;;;18.82;67.37;101131.94;3614321;39;20053;-59
2022/10/22 10:49:35;;;;;;;9.25;2.05;;;;;;;18.96;66.16;101145.16;3611868;39;20051;-60
2022/10/22 10:52:38;;;;;;;4.80;1.75;;;;;;;19.10;65.22;101140.31;3611960;39;20155;-59
2022/10/22 10:55:26;;;;;;;5.80;2.05;;;;;;;19.13;65.56;101145.47;3614325;39;20096;-59
2022/10/22 10:58:22;;;;;;;10.13;2.50;;;;;;;19.24;65.03;101138.00;3603092;39;20086;-59
2022/10/22 11:01:00;;;;;;;6.85;1.90;;;;;;;19.44;65.29;101135.25;3614433;39;20505;-59
2022/10/22 11:03:50;;;;;;;7.32;2.80;;;;;;;19.55;63.39;101135.13;3611983;39;20055;-61
2022/10/22 11:06:22;;;;;;;6.55;2.13;;;;;;;19.78;62.61;101145.72;3612920;39;20305;-59
2022/10/22 11:09:29;;;;;;;5.13;2.20;;;;;;;19.72;61.73;101138.97;3614420;39;20051;-58
2022/10/22 11:12:33;;;;;;;8.50;2.00;;;;;;;19.75;62.29;101140.56;3613538;39;20136;-60
2022/10/22 11:15:32;;;;;;;9.77;2.30;;;;;;;19.82;61.03;101147.16;3596810;39;20565;-59
2022/10/22 11:18:22;;;;;;;7.13;1.90;;;;;;;19.85;61.87;101149.56;3611726;39;20055;-59
2022/10/22 11:21:17;;;;;;;8.05;2.17;;;;;;;20.12;60.56;101146.91;3611566;39;20586;-59
2022/10/22 11:24:19;;;;;;;7.35;2.35;;;;;;;20.06;60.74;101149.38;3614688;39;20338;-59
2022/10/22 11:26:56;;;;;;;7.93;2.05;;;;;;;20.08;60.42;101145.50;3610966;39;20094;-58
2022/10/22 11:29:30;;;;;;;9.68;2.55;;;;;;;20.25;60.78;101143.00;3612202;39;20443;-59
2022/10/22 11:32:00;;;;;;;8.52;2.42;;;;;;;20.47;60.36;101137.16;3613731;39;20067;-59
2022/10/22 11:34:50;;;;;;;6.63;2.22;;;;;;;20.81;58.65;101133.81;3614511;39;20312;-59
2022/10/22 11:37:17;;;;;;;11.80;1.90;;;;;;;21.33;57.59;101123.91;3614716;39;20094;-58
2022/10/22 11:39:51;;;;;;;14.10;2.20;;;;;;;21.60;55.94;101121.22;3613636;39;20065;-59
2022/10/22 11:43:10;;;;;;;9.77;2.25;;;;;;;21.30;55.91;101135.16;3610702;39;20095;-59
2022/10/22 11:45:41;;;;;;;7.95;2.28;;;;;;;20.92;55.87;101136.31;3609442;39;20051;-58
2022/10/22 11:48:10;;;;;;;8.75;2.00;;;;;;;20.59;57.21;101122.31;3603869;39;20057;-59
2022/10/22 11:50:51;;;;;;;8.13;2.17;;;;;;;20.23;58.04;101129.47;3612743;39;20104;-59